Time;durP1;ratioP1;P1;durP2;ratioP2;P2;SDS_P1;SDS_P2;PMS_P1;PMS_P2;Temp;Humidity;BMP_temperature;BMP_pressure;BME280_temperature;BME280_humidity;BME280_pressure;Samples;Min_cycle;Max_cycle;Signal;HPM_P1;HPM_P2
2023/09/14 00:04:18;;;;;;;6.93;5.63;;;21.20;99.90;;;;;;10354916;28;20212;-81
2023/09/14 00:09:21;;;;;;;7.17;6.07;;;21.20;99.90;;;;;;10373635;28;20318;-80
2023/09/14 00:14:24;;;;;;;7.70;6.80;;;21.10;99.90;;;;;;10377284;28;20231;-81
2023/09/14 00:19:26;;;;;;;5.97;5.37;;;21.00;99.90;;;;;;10375021;28;20219;-80
2023/09/14 00:24:28;;;;;;;6.23;5.83;;;21.00;99.90;;;;;;10358324;28;20204;-81
2023/09/14 00:29:32;;;;;;;7.37;6.63;;;20.90;99.90;;;;;;10351960;28;20224;-79
2023/09/14 00:34:34;;;;;;;7.10;6.50;;;20.90;99.90;;;;;;10361816;28;20222;-79
2023/09/14 00:39:36;;;;;;;6.70;6.10;;;20.80;99.90;;;;;;10367197;28;20227;-80
2023/09/14 00:44:40;;;;;;;9.23;7.37;;;20.70;99.90;;;;;;10346858;28;20215;-80
2023/09/14 00:49:42;;;;;;;6.10;5.70;;;20.70;99.90;;;;;;10330277;28;20274;-80
2023/09/14 00:54:44;;;;;;;7.50;6.70;;;20.60;99.90;;;;;;10365160;28;20200;-79
2023/09/14 00:59:48;;;;;;;6.67;6.10;;;20.60;99.90;;;;;;10363425;28;20259;-78
2023/09/14 01:04:51;;;;;;;7.50;6.90;;;20.50;99.90;;;;;;10366803;28;20318;-80
2023/09/14 01:09:53;;;;;;;7.70;7.10;;;20.50;99.90;;;;;;10358439;28;20227;-78
2023/09/14 01:15:03;;;;;;;8.07;7.47;;;20.50;99.90;;;;;;10376246;28;20204;-80
2023/09/14 01:20:20;;;;;;;7.20;6.50;;;20.50;99.90;;;;;;10347549;28;20224;-80
2023/09/14 01:25:35;;;;;;;7.90;7.20;;;20.50;99.90;;;;;;10400478;28;20207;-80
2023/09/14 01:30:38;;;;;;;7.87;7.13;;;20.50;99.90;;;;;;10335270;28;20231;-80
2023/09/14 01:35:47;;;;;;;7.57;6.83;;;20.50;99.90;;;;;;10367515;28;20207;-80
2023/09/14 01:40:51;;;;;;;6.73;6.23;;;20.40;99.90;;;;;;10343951;28;20219;-80
2023/09/14 01:45:54;;;;;;;8.10;7.40;;;20.30;99.90;;;;;;10359583;28;20558;-80
2023/09/14 01:50:56;;;;;;;7.83;7.13;;;20.30;99.90;;;;;;10336703;28;20231;-79
2023/09/14 01:56:00;;;;;;;7.57;6.90;;;20.30;99.90;;;;;;10359005;28;20212;-79
2023/09/14 02:01:02;;;;;;;7.87;7.27;;;20.30;99.90;;;;;;10328712;28;20712;-80
2023/09/14 02:06:05;;;;;;;7.80;7.20;;;20.30;99.90;;;;;;10354757;28;20207;-80
2023/09/14 02:11:11;;;;;;;7.80;7.20;;;20.30;99.90;;;;;;10336364;28;20226;-80
2023/09/14 02:16:13;;;;;;;7.40;6.70;;;20.30;99.90;;;;;;10336824;28;20235;-80
2023/09/14 02:21:16;;;;;;;7.53;6.83;;;20.30;99.90;;;;;;10354511;28;20288;-80
2023/09/14 02:26:20;;;;;;;7.30;6.70;;;20.30;99.90;;;;;;10341553;28;20698;-80
2023/09/14 02:31:22;;;;;;;7.20;6.50;;;20.30;99.90;;;;;;10329806;28;20243;-79
2023/09/14 02:36:25;;;;;;;6.83;6.33;;;20.30;99.90;;;;;;10346799;28;20314;-79
2023/09/14 02:41:28;;;;;;;6.70;6.10;;;20.30;99.90;;;;;;10362216;28;20231;-80
2023/09/14 02:46:30;;;;;;;5.23;4.83;;;20.30;99.90;;;;;;10367590;28;20231;-80
2023/09/14 02:51:33;;;;;;;7.93;6.60;;;20.30;99.90;;;;;;10342614;28;20220;-80
2023/09/14 02:56:36;;;;;;;5.60;5.20;;;20.30;99.90;;;;;;10333105;28;20650;-80
2023/09/14 03:01:38;;;;;;;6.23;5.50;;;20.30;99.90;;;;;;10325765;28;20192;-80
2023/09/14 03:06:41;;;;;;;5.93;5.33;;;20.30;99.90;;;;;;10340438;28;20215;-80
2023/09/14 03:11:44;;;;;;;5.90;5.50;;;20.40;99.90;;;;;;10334855;28;20235;-80
2023/09/14 03:16:46;;;;;;;6.40;5.80;;;20.40;99.90;;;;;;10344427;28;20277;-80
2023/09/14 03:21:49;;;;;;;5.97;5.57;;;20.40;99.90;;;;;;10323432;28;20291;-80
2023/09/14 03:26:53;;;;;;;5.93;5.43;;;20.40;99.90;;;;;;10344261;28;20247;-80
2023/09/14 03:31:55;;;;;;;5.10;4.80;;;20.40;99.90;;;;;;10334694;28;20235;-80
2023/09/14 03:36:58;;;;;;;4.77;4.37;;;20.40;99.90;;;;;;10359862;28;20903;-80
2023/09/14 03:42:02;;;;;;;4.80;4.40;;;20.40;99.90;;;;;;10355228;28;20251;-80
2023/09/14 03:47:06;;;;;;;5.80;5.30;;;20.40;99.90;;;;;;10333798;28;20738;-80
2023/09/14 03:52:08;;;;;;;4.90;4.57;;;20.40;99.90;;;;;;10343686;28;20216;-80
2023/09/14 03:57:14;;;;;;;6.20;5.60;;;20.40;99.90;;;;;;10352219;28;20231;-80
2023/09/14 04:02:17;;;;;;;5.00;4.60;;;20.40;99.90;;;;;;10353202;28;20196;-80
2023/09/14 04:07:19;;;;;;;4.63;4.33;;;20.30;99.90;;;;;;10362893;28;20228;-80
2023/09/14 04:12:23;;;;;;;5.50;5.00;;;20.40;99.90;;;;;;10362385;28;20227;-80
2023/09/14 04:17:26;;;;;;;5.87;5.47;;;20.30;99.90;;;;;;10352337;28;20246;-80
2023/09/14 04:22:28;;;;;;;5.27;4.87;;;20.30;99.90;;;;;;10350604;28;20221;-80
2023/09/14 04:27:32;;;;;;;4.80;4.50;;;20.20;99.90;;;;;;10341214;28;20227;-80
2023/09/14 04:32:34;;;;;;;7.73;5.50;;;20.20;99.90;;;;;;10367629;28;20218;-80
2023/09/14 04:37:36;;;;;;;5.10;4.73;;;20.20;99.90;;;;;;10342790;28;20234;-80
2023/09/14 04:42:40;;;;;;;5.73;5.33;;;20.10;99.90;;;;;;10342686;28;20199;-80
2023/09/14 04:47:42;;;;;;;5.73;5.33;;;20.00;99.90;;;;;;10343484;28;20224;-80
2023/09/14 04:52:45;;;;;;;4.40;4.00;;;20.00;99.90;;;;;;10353417;28;20321;-80
2023/09/14 04:57:48;;;;;;;7.53;5.10;;;19.90;99.90;;;;;;10348099;28;20265;-80
2023/09/14 05:02:51;;;;;;;4.90;4.50;;;19.80;99.90;;;;;;10343910;28;20215;-79
2023/09/14 05:07:53;;;;;;;4.73;4.40;;;19.80;99.90;;;;;;10351150;28;20227;-80
2023/09/14 05:12:56;;;;;;;4.67;4.37;;;19.70;99.90;;;;;;10346011;28;20227;-80
2023/09/14 05:17:59;;;;;;;4.77;4.40;;;19.60;99.90;;;;;;10338982;28;20223;-79
2023/09/14 05:23:01;;;;;;;4.90;4.40;;;19.50;99.90;;;;;;10342940;28;20215;-79
2023/09/14 05:28:06;;;;;;;5.20;4.90;;;19.50;99.90;;;;;;10346344;28;20242;-80
2023/09/14 05:33:09;;;;;;;5.90;5.30;;;19.40;99.90;;;;;;10342399;28;20234;-80
2023/09/14 05:38:12;;;;;;;4.77;4.37;;;19.40;99.90;;;;;;10341161;28;20750;-80
2023/09/14 05:43:16;;;;;;;5.10;4.77;;;19.40;99.90;;;;;;10336886;28;20245;-80
2023/09/14 05:48:18;;;;;;;21.03;6.87;;;19.40;99.90;;;;;;10348362;28;20315;-80
2023/09/14 05:53:20;;;;;;;6.53;5.67;;;19.30;99.90;;;;;;10347330;28;20255;-80
2023/09/14 05:58:24;;;;;;;5.63;5.27;;;19.40;99.90;;;;;;10335784;28;20794;-80
2023/09/14 06:03:26;;;;;;;5.23;4.80;;;19.50;99.90;;;;;;10364565;28;20670;-80
2023/09/14 06:08:28;;;;;;;6.47;5.93;;;19.50;99.90;;;;;;10355403;28;20234;-80
2023/09/14 06:13:32;;;;;;;7.60;6.90;;;19.60;99.90;;;;;;10371743;28;20223;-80
2023/09/14 06:18:35;;;;;;;8.73;7.17;;;19.80;99.90;;;;;;10339334;28;20223;-80
2023/09/14 06:23:37;;;;;;;8.83;8.03;;;19.90;99.90;;;;;;10362998;28;20628;-80
2023/09/14 06:28:40;;;;;;;9.60;8.60;;;20.10;99.90;;;;;;10357254;28;20305;-80
2023/09/14 06:33:43;;;;;;;8.33;7.53;;;20.10;99.90;;;;;;10355644;28;20243;-80
2023/09/14 06:38:45;;;;;;;8.50;7.70;;;20.20;99.90;;;;;;10350307;28;20219;-79
2023/09/14 06:43:49;;;;;;;9.57;8.67;;;20.20;99.90;;;;;;10357353;28;20199;-80
2023/09/14 06:48:51;;;;;;;9.50;8.10;;;20.30;99.90;;;;;;10346277;28;20326;-79
2023/09/14 06:53:53;;;;;;;9.30;8.50;;;20.30;99.90;;;;;;10348764;28;20229;-80
2023/09/14 06:58:56;;;;;;;8.30;7.60;;;20.30;99.90;;;;;;10334047;28;20235;-80
2023/09/14 07:03:58;;;;;;;6.93;6.33;;;20.40;99.90;;;;;;10350903;28;20226;-80
2023/09/14 07:09:02;;;;;;;6.80;6.20;;;20.40;99.90;;;;;;10355269;28;20227;-80
2023/09/14 07:14:05;;;;;;;7.90;7.10;;;20.40;99.90;;;;;;10351414;28;20207;-80
2023/09/14 07:19:07;;;;;;;7.07;6.33;;;20.50;99.90;;;;;;10364384;28;20230;-80
2023/09/14 07:24:10;;;;;;;7.90;7.30;;;20.60;99.90;;;;;;10350878;28;20214;-80
2023/09/14 07:29:13;;;;;;;7.77;7.07;;;20.60;99.90;;;;;;10360985;28;20227;-80
2023/09/14 07:34:15;;;;;;;8.83;7.37;;;20.60;99.90;;;;;;10363173;28;20218;-80
2023/09/14 07:39:17;;;;;;;7.63;6.40;;;20.60;99.90;;;;;;10350565;28;20677;-80
2023/09/14 07:44:21;;;;;;;6.57;5.97;;;20.70;99.90;;;;;;10358313;28;20282;-79
2023/09/14 07:49:23;;;;;;;7.90;7.20;;;20.70;99.90;;;;;;10359719;28;20232;-80
2023/09/14 07:54:25;;;;;;;9.07;8.27;;;20.80;99.90;;;;;;10331287;28;20242;-80
2023/09/14 07:59:30;;;;;;;8.47;7.67;;;20.80;99.90;;;;;;10342092;28;20751;-79
2023/09/14 08:04:32;;;;;;;9.17;8.30;;;20.90;99.90;;;;;;10351131;28;20599;-80
2023/09/14 08:09:34;;;;;;;8.33;7.50;;;20.90;99.90;;;;;;10349181;28;20219;-79
2023/09/14 08:14:37;;;;;;;9.20;8.40;;;20.90;99.90;;;;;;10325337;28;20667;-80
2023/09/14 08:19:39;;;;;;;9.37;8.57;;;20.90;99.90;;;;;;10331336;28;20303;-80
2023/09/14 08:24:42;;;;;;;8.10;7.27;;;21.00;99.90;;;;;;10353311;28;20218;-80
2023/09/14 08:29:45;;;;;;;8.43;7.63;;;21.00;99.90;;;;;;10334040;28;20223;-80
2023/09/14 08:34:48;;;;;;;8.13;7.37;;;21.10;99.90;;;;;;10361226;28;20295;-80
2023/09/14 08:39:51;;;;;;;7.80;7.00;;;21.10;99.90;;;;;;10349074;28;20270;-80
2023/09/14 08:44:56;;;;;;;8.27;7.47;;;21.20;99.90;;;;;;10370253;28;20215;-80
2023/09/14 08:50:00;;;;;;;8.10;7.40;;;21.30;99.90;;;;;;10357307;28;20637;-80
2023/09/14 08:55:03;;;;;;;6.93;6.33;;;21.40;99.90;;;;;;10347822;28;20203;-80
2023/09/14 09:00:14;;;;;;;8.93;6.80;;;21.40;99.90;;;;;;10388352;23;20903;-78
2023/09/14 09:05:18;;;;;;;7.20;6.50;;;21.50;99.90;;;;;;10346298;28;20211;-79
2023/09/14 09:10:21;;;;;;;6.70;6.10;;;21.50;99.90;;;;;;10298683;28;20235;-79
2023/09/14 09:15:26;;;;;;;9.00;6.23;;;21.50;99.90;;;;;;10328671;28;20258;-79
2023/09/14 09:20:30;;;;;;;6.93;6.40;;;21.60;99.90;;;;;;10325719;28;20224;-79
2023/09/14 09:25:44;;;;;;;7.30;6.70;;;21.70;99.90;;;;;;10330139;28;20589;-79
2023/09/14 09:30:54;;;;;;;6.57;6.07;;;21.70;99.90;;;;;;10298337;28;20235;-80
2023/09/14 09:36:00;;;;;;;6.87;6.30;;;21.70;99.90;;;;;;10313439;28;20671;-79
2023/09/14 09:41:10;;;;;;;6.30;5.80;;;21.80;99.90;;;;;;10308254;28;20219;-79
2023/09/14 09:46:17;;;;;;;5.00;4.70;;;21.80;99.90;;;;;;10313593;28;20216;-80
2023/09/14 09:51:21;;;;;;;6.73;6.10;;;21.80;99.90;;;;;;10339036;28;20227;-79
2023/09/14 09:56:24;;;;;;;6.27;5.77;;;21.90;99.90;;;;;;10354929;28;20211;-78
2023/09/14 10:01:28;;;;;;;6.30;5.80;;;21.90;99.90;;;;;;10338582;28;20218;-79
2023/09/14 10:06:30;;;;;;;8.47;5.87;;;22.00;99.90;;;;;;10301985;28;20204;-79
2023/09/14 10:11:33;;;;;;;6.83;6.23;;;22.10;99.90;;;;;;10319448;28;20235;-78
2023/09/14 10:16:41;;;;;;;6.90;5.97;;;22.20;99.90;;;;;;10291819;28;20300;-78
2023/09/14 10:21:46;;;;;;;6.37;5.87;;;22.30;99.90;;;;;;10307434;28;20730;-79
2023/09/14 10:26:50;;;;;;;7.37;5.60;;;22.40;99.90;;;;;;10321165;28;20220;-79
2023/09/14 10:31:56;;;;;;;7.00;5.67;;;22.40;99.90;;;;;;10319666;28;20679;-79
2023/09/14 10:37:00;;;;;;;6.20;5.50;;;22.50;99.90;;;;;;10321168;28;20644;-79
2023/09/14 10:42:03;;;;;;;6.07;5.47;;;22.60;99.30;;;;;;10302482;28;20216;-79
2023/09/14 10:47:07;;;;;;;4.70;4.40;;;22.60;99.70;;;;;;10319404;28;20211;-78
2023/09/14 10:52:09;;;;;;;5.77;5.27;;;22.70;99.90;;;;;;10310094;28;20242;-79
2023/09/14 10:57:21;;;;;;;5.07;4.67;;;22.80;99.70;;;;;;10326935;28;20263;-80
2023/09/14 11:02:58;;;;;;;4.70;4.30;;;22.90;99.90;;;;;;10332473;28;20200;-78
2023/09/14 11:08:02;;;;;;;5.53;5.03;;;23.00;99.20;;;;;;10222423;28;20714;-80
2023/09/14 11:13:30;;;;;;;6.80;5.03;;;22.90;98.90;;;;;;10299006;28;20223;-79
2023/09/14 11:18:50;;;;;;;5.77;5.27;;;22.70;99.40;;;;;;10307687;28;20231;-79
2023/09/14 11:23:53;;;;;;;5.23;4.50;;;22.60;99.30;;;;;;10297183;28;20284;-79
2023/09/14 11:28:55;;;;;;;5.77;5.27;;;22.40;99.70;;;;;;10312196;28;20243;-79
2023/09/14 11:34:05;;;;;;;5.00;4.50;;;22.30;99.00;;;;;;10333874;28;20228;-79
2023/09/14 11:39:11;;;;;;;5.20;4.53;;;22.40;98.80;;;;;;10296726;28;20224;-80
2023/09/14 11:44:13;;;;;;;3.63;3.17;;;22.50;98.30;;;;;;10293203;28;20263;-79
2023/09/14 11:49:20;;;;;;;4.70;4.27;;;22.30;98.70;;;;;;10302457;28;20235;-80
2023/09/14 11:54:22;;;;;;;5.90;5.40;;;22.20;98.40;;;;;;10332490;28;20224;-78
2023/09/14 11:59:30;;;;;;;5.43;4.93;;;22.10;99.20;;;;;;10333994;28;20242;-79
2023/09/14 12:04:34;;;;;;;6.43;4.77;;;22.10;99.20;;;;;;10303427;28;20192;-80
2023/09/14 12:09:38;;;;;;;5.03;4.63;;;22.00;98.50;;;;;;10304561;28;20280;-79
2023/09/14 12:14:43;;;;;;;5.03;4.53;;;21.90;99.00;;;;;;10308147;28;20442;-80
2023/09/14 12:19:51;;;;;;;4.90;4.40;;;21.90;98.30;;;;;;10292993;28;20234;-80
2023/09/14 12:24:54;;;;;;;5.53;5.07;;;21.80;99.10;;;;;;10308182;28;20205;-80
2023/09/14 12:29:57;;;;;;;6.40;5.17;;;21.80;99.10;;;;;;10338072;28;20225;-79
2023/09/14 12:35:00;;;;;;;4.53;4.23;;;21.80;99.30;;;;;;10285727;28;20229;-80
2023/09/14 12:40:06;;;;;;;4.07;3.77;;;21.80;98.90;;;;;;10302870;28;20486;-80
2023/09/14 12:45:12;;;;;;;4.33;3.77;;;21.80;99.00;;;;;;10301902;28;20208;-80
2023/09/14 12:50:18;;;;;;;5.67;4.13;;;21.80;99.80;;;;;;10309545;28;20219;-79
2023/09/14 12:55:21;;;;;;;4.60;4.20;;;21.80;98.80;;;;;;10283266;28;20224;-79
2023/09/14 13:00:25;;;;;;;8.60;4.47;;;21.80;99.10;;;;;;10302412;28;20601;-78
2023/09/14 13:05:28;;;;;;;5.07;4.57;;;21.80;99.20;;;;;;10306322;28;20205;-79
2023/09/14 13:10:32;;;;;;;5.83;4.43;;;21.80;98.50;;;;;;10305435;28;20231;-79
2023/09/14 13:15:36;;;;;;;4.50;3.93;;;21.80;97.90;;;;;;10310506;28;20220;-79
2023/09/14 13:20:46;;;;;;;5.10;4.03;;;21.80;98.40;;;;;;10311946;28;20262;-80
2023/09/14 13:25:48;;;;;;;4.17;3.77;;;21.80;98.50;;;;;;10303303;28;20209;-79
2023/09/14 13:30:51;;;;;;;4.90;4.43;;;21.80;98.30;;;;;;10312331;28;20224;-79
2023/09/14 13:35:56;;;;;;;4.73;4.10;;;21.90;97.40;;;;;;10318020;28;20215;-79
2023/09/14 13:40:58;;;;;;;3.93;3.67;;;21.90;97.70;;;;;;10310098;28;20635;-79
2023/09/14 13:46:00;;;;;;;3.73;3.33;;;22.00;97.50;;;;;;10302071;28;20216;-80
2023/09/14 13:51:11;;;;;;;5.07;4.23;;;22.00;98.30;;;;;;10295100;28;20232;-79
2023/09/14 13:56:13;;;;;;;4.13;3.73;;;22.00;98.50;;;;;;10296555;28;20209;-79
2023/09/14 14:01:15;;;;;;;3.80;3.50;;;22.10;97.90;;;;;;10333450;28;20318;-78
2023/09/14 14:06:19;;;;;;;5.97;4.03;;;22.20;97.60;;;;;;10306156;28;20268;-80
2023/09/14 14:11:21;;;;;;;6.27;3.33;;;22.20;97.80;;;;;;10310659;28;20781;-80
2023/09/14 14:16:23;;;;;;;3.77;3.47;;;22.20;97.60;;;;;;10270414;28;20212;-80
2023/09/14 14:21:29;;;;;;;4.87;3.30;;;22.30;97.20;;;;;;10345686;28;20216;-79
2023/09/14 14:26:31;;;;;;;5.40;3.53;;;22.30;97.60;;;;;;10322626;28;20208;-80
2023/09/14 14:31:33;;;;;;;3.33;3.03;;;22.40;96.70;;;;;;10343195;28;20224;-79
2023/09/14 14:36:37;;;;;;;3.50;3.20;;;22.40;96.50;;;;;;10283677;28;20196;-78
2023/09/14 14:41:39;;;;;;;3.80;3.40;;;22.40;96.60;;;;;;10302336;28;20228;-79
2023/09/14 14:46:41;;;;;;;3.60;3.40;;;22.40;97.10;;;;;;10265066;28;20291;-80
2023/09/14 14:51:45;;;;;;;6.20;3.40;;;22.60;96.10;;;;;;10325606;28;20228;-79
2023/09/14 15:01:53;;;;;;;3.47;2.63;;;22.50;95.20;;;;;;10237636;28;20595;-80
2023/09/14 15:06:58;;;;;;;4.17;3.87;;;22.50;96.30;;;;;;10226149;29;20261;-78
2023/09/14 15:12:01;;;;;;;2.80;2.60;;;22.40;96.80;;;;;;10250747;29;20231;-80
2023/09/14 15:17:03;;;;;;;3.20;2.93;;;22.40;96.40;;;;;;10248627;28;20212;-80
2023/09/14 15:22:07;;;;;;;3.60;3.17;;;22.40;97.20;;;;;;10246711;29;20205;-80
2023/09/14 15:27:09;;;;;;;5.60;3.47;;;22.40;97.30;;;;;;10219741;29;20232;-80
2023/09/14 15:32:11;;;;;;;7.27;2.70;;;22.40;96.70;;;;;;10231253;29;20263;-80
2023/09/14 15:37:14;;;;;;;3.53;3.17;;;22.50;96.70;;;;;;10247126;28;20225;-80
2023/09/14 15:42:17;;;;;;;2.70;2.60;;;22.50;96.30;;;;;;10242435;29;20573;-80
2023/09/14 15:47:19;;;;;;;3.30;3.03;;;22.60;96.30;;;;;;10232922;28;20256;-80
2023/09/14 15:52:22;;;;;;;3.23;2.97;;;22.70;95.20;;;;;;10252826;29;20221;-80
2023/09/14 15:57:24;;;;;;;2.97;2.77;;;22.70;95.90;;;;;;10238472;28;20850;-80
2023/09/14 16:02:26;;;;;;;8.37;3.70;;;22.70;96.70;;;;;;10233366;29;20201;-80
2023/09/14 16:07:30;;;;;;;2.90;2.70;;;22.60;95.90;;;;;;10251048;28;20277;-80
2023/09/14 16:12:32;;;;;;;2.80;2.60;;;22.60;96.30;;;;;;10251217;28;20225;-81
2023/09/14 16:17:34;;;;;;;3.93;3.40;;;22.60;95.20;;;;;;10233231;29;20681;-80
2023/09/14 16:22:38;;;;;;;2.80;2.60;;;22.50;95.90;;;;;;10232540;29;20265;-79
2023/09/14 16:27:40;;;;;;;3.10;2.90;;;22.40;95.80;;;;;;10229572;29;20231;-80
2023/09/14 16:32:42;;;;;;;2.67;2.47;;;22.40;94.90;;;;;;10226775;29;20277;-80
2023/09/14 16:37:45;;;;;;;3.23;2.93;;;22.40;95.30;;;;;;10235706;28;20229;-80
2023/09/14 16:42:48;;;;;;;4.20;3.13;;;22.30;95.30;;;;;;10237199;29;20259;-80
2023/09/14 16:47:50;;;;;;;2.90;2.70;;;22.30;95.20;;;;;;10235540;29;20233;-80
2023/09/14 16:52:53;;;;;;;3.10;2.90;;;22.20;97.50;;;;;;10225508;29;20236;-80
2023/09/14 16:57:55;;;;;;;3.90;2.90;;;22.10;97.40;;;;;;10248141;28;20229;-80
2023/09/14 17:02:57;;;;;;;4.03;3.63;;;22.10;97.50;;;;;;10227536;29;20290;-80
2023/09/14 17:08:01;;;;;;;3.30;3.10;;;22.00;97.40;;;;;;10247909;28;20225;-80
2023/09/14 17:13:03;;;;;;;4.60;3.33;;;21.90;96.60;;;;;;10225781;29;20265;-80
2023/09/14 17:18:06;;;;;;;3.47;3.17;;;21.90;96.40;;;;;;10249077;28;20677;-80
2023/09/14 17:23:10;;;;;;;3.60;3.40;;;21.80;95.90;;;;;;10227328;28;20206;-80
2023/09/14 17:28:12;;;;;;;3.20;3.00;;;21.80;97.20;;;;;;10236003;29;20229;-80
2023/09/14 17:33:14;;;;;;;3.80;3.47;;;21.70;96.70;;;;;;10262668;29;20646;-80
2023/09/14 17:38:17;;;;;;;3.10;2.90;;;21.60;97.00;;;;;;10238565;28;20237;-80
2023/09/14 17:43:20;;;;;;;3.47;3.17;;;21.50;97.50;;;;;;10224506;29;20202;-80
2023/09/14 17:48:23;;;;;;;3.40;3.20;;;21.40;97.60;;;;;;10231551;29;20221;-79
2023/09/14 17:53:27;;;;;;;6.50;3.30;;;21.30;97.60;;;;;;10225606;29;20299;-80
2023/09/14 17:58:29;;;;;;;3.53;3.33;;;21.10;98.00;;;;;;10238743;28;20249;-80
2023/09/14 18:03:32;;;;;;;3.90;3.50;;;21.00;97.90;;;;;;10213339;29;20197;-80
2023/09/14 18:08:36;;;;;;;3.00;2.80;;;20.90;98.10;;;;;;10235092;29;20229;-80
2023/09/14 18:13:38;;;;;;;3.40;3.10;;;20.80;98.00;;;;;;10226762;29;20253;-80
2023/09/14 18:18:40;;;;;;;5.30;3.40;;;20.80;98.00;;;;;;10240468;28;20228;-80
2023/09/14 18:23:45;;;;;;;3.60;3.30;;;20.80;98.00;;;;;;10243143;29;20204;-80
2023/09/14 18:28:47;;;;;;;4.63;4.00;;;20.70;97.90;;;;;;10237774;29;20707;-79
2023/09/14 18:33:49;;;;;;;3.57;2.90;;;20.70;98.10;;;;;;10224705;29;20225;-80
2023/09/14 18:38:54;;;;;;;4.33;3.93;;;20.70;98.10;;;;;;10222265;28;20225;-79
2023/09/14 18:43:56;;;;;;;3.50;3.30;;;20.60;98.20;;;;;;10253408;28;20205;-80
2023/09/14 18:48:59;;;;;;;3.33;3.03;;;20.50;98.00;;;;;;10230300;29;20250;-79
2023/09/14 18:54:02;;;;;;;3.60;3.30;;;20.40;98.30;;;;;;10238177;28;20227;-80
2023/09/14 18:59:05;;;;;;;3.60;3.37;;;20.40;98.30;;;;;;10250660;29;20288;-80
2023/09/14 19:04:08;;;;;;;3.47;3.17;;;20.30;98.30;;;;;;10243765;29;20201;-80
2023/09/14 19:09:11;;;;;;;3.50;3.17;;;20.30;97.90;;;;;;10239708;28;20234;-80
2023/09/14 19:14:13;;;;;;;3.57;3.27;;;20.20;98.10;;;;;;10231790;29;20328;-80
2023/09/14 19:19:16;;;;;;;3.40;3.13;;;20.10;98.00;;;;;;10239988;28;20376;-80
2023/09/14 19:24:21;;;;;;;4.07;3.37;;;20.00;98.00;;;;;;10223816;29;20265;-80
2023/09/14 19:29:23;;;;;;;3.07;2.87;;;20.00;98.40;;;;;;10228545;29;20715;-80
2023/09/14 19:34:26;;;;;;;4.30;3.60;;;19.90;98.00;;;;;;10242232;29;20244;-79
2023/09/14 19:39:29;;;;;;;4.37;3.03;;;19.90;97.80;;;;;;10227597;29;20216;-80
2023/09/14 19:44:31;;;;;;;3.50;3.20;;;19.80;97.70;;;;;;10250570;28;20201;-79
2023/09/14 19:49:34;;;;;;;3.60;3.40;;;19.70;98.10;;;;;;10260640;29;20296;-80
2023/09/14 19:54:37;;;;;;;4.23;3.87;;;19.70;98.10;;;;;;10258651;29;20304;-80
2023/09/14 19:59:39;;;;;;;3.53;3.23;;;19.60;98.40;;;;;;10266928;28;20284;-80
2023/09/14 20:04:41;;;;;;;3.37;3.07;;;19.60;98.60;;;;;;10247995;29;20202;-80
2023/09/14 20:09:45;;;;;;;4.23;3.80;;;19.60;98.50;;;;;;10249138;28;20230;-80
2023/09/14 20:14:47;;;;;;;4.27;3.60;;;19.60;98.60;;;;;;10246968;29;20240;-79
2023/09/14 20:19:49;;;;;;;3.73;3.43;;;19.50;98.50;;;;;;10259167;29;20236;-79
2023/09/14 20:24:55;;;;;;;3.93;3.53;;;19.50;98.60;;;;;;10276398;29;20236;-80
2023/09/14 20:29:57;;;;;;;5.53;5.00;;;19.50;98.80;;;;;;10257045;29;20221;-79
2023/09/14 20:34:59;;;;;;;5.87;4.00;;;19.40;98.60;;;;;;10242312;29;20276;-80
2023/09/14 20:40:07;;;;;;;4.20;3.90;;;19.40;99.00;;;;;;10251930;28;20218;-79
2023/09/14 20:45:13;;;;;;;4.10;3.70;;;19.40;99.00;;;;;;10250994;29;20206;-79
2023/09/14 20:50:18;;;;;;;4.07;3.77;;;19.30;98.80;;;;;;10240116;28;20317;-80
2023/09/14 20:55:23;;;;;;;4.00;3.70;;;19.30;99.40;;;;;;10248370;29;20230;-79
2023/09/14 21:00:25;;;;;;;3.80;3.50;;;19.20;98.90;;;;;;10249775;29;20260;-79
2023/09/14 21:05:27;;;;;;;4.10;3.70;;;19.20;98.80;;;;;;10238545;29;20201;-80
2023/09/14 21:10:31;;;;;;;3.23;3.03;;;19.10;98.80;;;;;;10249213;28;20218;-79
2023/09/14 21:15:33;;;;;;;3.50;3.20;;;19.00;99.10;;;;;;10238114;29;20699;-80
2023/09/14 21:20:36;;;;;;;5.30;3.70;;;19.00;99.20;;;;;;10234411;29;20250;-79
2023/09/14 21:25:39;;;;;;;7.13;3.93;;;18.90;99.10;;;;;;10258407;29;20687;-80
2023/09/14 21:30:42;;;;;;;3.90;3.60;;;18.80;99.20;;;;;;10260811;29;20225;-79
2023/09/14 21:35:51;;;;;;;3.73;3.40;;;18.80;99.40;;;;;;10235330;29;20316;-79
2023/09/14 21:41:00;;;;;;;5.13;4.63;;;18.80;99.60;;;;;;10251910;28;20229;-79
2023/09/14 21:46:02;;;;;;;6.07;3.80;;;18.70;99.40;;;;;;10249496;28;20642;-80
2023/09/14 21:51:05;;;;;;;4.00;3.70;;;18.70;99.60;;;;;;10249805;28;20213;-80
2023/09/14 21:56:09;;;;;;;4.67;4.20;;;18.70;99.70;;;;;;10248502;29;20232;-80
2023/09/14 22:01:12;;;;;;;4.07;3.70;;;18.60;99.70;;;;;;10249761;29;20244;-79
2023/09/14 22:06:14;;;;;;;4.33;4.03;;;18.60;99.50;;;;;;10236088;29;20205;-79
2023/09/14 22:11:17;;;;;;;7.03;3.90;;;18.60;99.80;;;;;;10256281;28;20257;-79
2023/09/14 22:16:20;;;;;;;4.70;4.20;;;18.60;99.90;;;;;;10248330;29;20236;-79
2023/09/14 22:21:23;;;;;;;5.83;4.43;;;18.50;99.90;;;;;;10236505;29;20229;-79
2023/09/14 22:26:26;;;;;;;4.67;3.70;;;18.50;99.90;;;;;;10232943;29;20293;-79
2023/09/14 22:31:29;;;;;;;4.93;4.40;;;18.50;99.60;;;;;;10254881;28;20701;-79
2023/09/14 22:36:31;;;;;;;4.43;4.13;;;18.40;99.90;;;;;;10229217;29;20582;-79
2023/09/14 22:41:35;;;;;;;4.83;4.33;;;18.40;99.90;;;;;;10254497;28;20269;-79
2023/09/14 22:46:37;;;;;;;4.40;4.10;;;18.30;99.90;;;;;;10250340;29;20194;-79
2023/09/14 22:51:40;;;;;;;5.70;3.93;;;18.30;99.90;;;;;;10258245;29;20213;-79
2023/09/14 22:56:43;;;;;;;4.87;4.33;;;18.20;99.90;;;;;;10251146;28;20280;-79
2023/09/14 23:01:45;;;;;;;5.90;3.80;;;18.20;99.90;;;;;;10247878;29;20248;-78
2023/09/14 23:06:48;;;;;;;4.57;4.17;;;18.20;99.90;;;;;;10229768;29;20252;-80
2023/09/14 23:11:52;;;;;;;5.40;4.90;;;18.10;99.90;;;;;;10259484;28;20704;-79
2023/09/14 23:16:54;;;;;;;4.83;4.20;;;18.10;99.90;;;;;;10235296;29;20218;-79
2023/09/14 23:22:00;;;;;;;4.97;4.47;;;18.10;99.90;;;;;;10222732;29;20194;-79
2023/09/14 23:27:04;;;;;;;4.27;3.97;;;18.10;99.90;;;;;;10212378;28;20193;-78
2023/09/14 23:32:06;;;;;;;5.50;4.50;;;18.10;99.90;;;;;;10249872;29;20197;-78
2023/09/14 23:37:08;;;;;;;4.30;4.00;;;18.10;99.90;;;;;;10252341;29;20221;-79
2023/09/14 23:42:12;;;;;;;5.73;5.17;;;18.10;99.90;;;;;;10223028;29;20202;-79
2023/09/14 23:47:14;;;;;;;3.80;3.57;;;18.00;99.90;;;;;;10220588;29;20228;-79
2023/09/14 23:52:16;;;;;;;4.27;3.87;;;18.00;99.90;;;;;;10223891;29;20211;-79
2023/09/14 23:57:20;;;;;;;4.27;3.90;;;18.00;99.90;;;;;;10226171;29;20744;-79
